Estación de Los Colihues
Ultimos registro cada 15 minutos 93
| N° | Estación | Fecha / Hora | Temperatura | Humedad | Lluvia | Velocidad | Dirección | Radiación | Presion |
| 93 | Los Colihues | 05-05-2026 23:00 | 15,1 | 83,4 | 0 | 2 | 25 | 0,6 | 1002,4 |
| 92 | Los Colihues | 05-05-2026 22:45 | 15,1 | 83 | 0 | 2 | 28 | 0,6 | 1002,3 |
| 91 | Los Colihues | 05-05-2026 22:30 | 14,8 | 84,5 | 0 | 1 | 34 | 0,6 | 1002,2 |
| 90 | Los Colihues | 05-05-2026 22:15 | 14,7 | 84,9 | 0 | 1 | 27 | 0,6 | 1002,2 |
| 89 | Los Colihues | 05-05-2026 22:00 | 14,7 | 84,5 | 0 | 1 | 41 | 0,6 | 1002,3 |
| 88 | Los Colihues | 05-05-2026 21:45 | 15,1 | 82,6 | 0 | 1,5 | 31 | 0,6 | 1002,3 |
| 87 | Los Colihues | 05-05-2026 21:30 | 15 | 83,4 | 0 | 1,5 | 31 | 0,6 | 1002,6 |
| 86 | Los Colihues | 05-05-2026 21:15 | 14,9 | 83,5 | 0 | 1 | 35 | 0,6 | 1002,1 |
| 85 | Los Colihues | 05-05-2026 21:00 | 14,7 | 83,8 | 0 | 0 | 31 | 0,6 | 1002,3 |
| 84 | Los Colihues | 05-05-2026 20:45 | 15 | 83,2 | 0 | 0,5 | 10 | 0,6 | 1002,6 |
| 83 | Los Colihues | 05-05-2026 20:30 | 15 | 83 | 0 | 0 | 7 | 0,6 | 1002,6 |
| 82 | Los Colihues | 05-05-2026 20:15 | 14,7 | 86,1 | 0 | 0 | 13 | 0,6 | 1002,8 |
| 81 | Los Colihues | 05-05-2026 20:00 | 14,1 | 90,6 | 0 | 0 | 10 | 0,6 | 1002,9 |
| 80 | Los Colihues | 05-05-2026 19:45 | 14,4 | 90,8 | 0 | 0 | 8 | 0,6 | 1002,9 |
| 79 | Los Colihues | 05-05-2026 19:30 | 14,8 | 89,6 | 0 | 0 | 6 | 0,6 | 1003 |
| 78 | Los Colihues | 05-05-2026 19:15 | 15 | 89,3 | 0 | 0 | 10 | 0,6 | 1002,7 |
| 77 | Los Colihues | 05-05-2026 19:00 | 15,4 | 88,6 | 0 | 0 | 310 | 0,6 | 1002,5 |
| 76 | Los Colihues | 05-05-2026 18:45 | 15 | 91,3 | 0 | 0 | 260 | 0,6 | 1002,6 |
| 75 | Los Colihues | 05-05-2026 18:30 | 14,6 | 94,2 | 0 | 0 | 256 | 0,6 | 1002,6 |
| 74 | Los Colihues | 05-05-2026 18:15 | 14,8 | 92 | 0 | 0 | 256 | 0,6 | 1002,6 |
| 73 | Los Colihues | 05-05-2026 18:00 | 15,5 | 89,7 | 0 | 0 | 256 | 0,6 | 1002,5 |
| 72 | Los Colihues | 05-05-2026 17:45 | 15,5 | 91,6 | 0 | 0 | 256 | 6,9 | 1002,5 |
| 71 | Los Colihues | 05-05-2026 17:30 | 15,9 | 89,3 | 0 | 0 | 256 | 9,4 | 1002,9 |
| 70 | Los Colihues | 05-05-2026 17:15 | 16,4 | 85,9 | 0 | 0 | 256 | 18,1 | 1002,9 |
| 69 | Los Colihues | 05-05-2026 17:00 | 16,9 | 85,2 | 0 | 0 | 256 | 26,9 | 1002,9 |
| 68 | Los Colihues | 05-05-2026 16:45 | 17 | 83,3 | 0 | 0 | 257 | 25,6 | 1003,6 |
| 67 | Los Colihues | 05-05-2026 16:30 | 17,2 | 82,6 | 0 | 0 | 261 | 28,1 | 1003,3 |
| 66 | Los Colihues | 05-05-2026 16:15 | 17,5 | 80,7 | 0 | 0 | 306 | 56,9 | 1002,8 |
| 65 | Los Colihues | 05-05-2026 16:00 | 17,8 | 78,2 | 0 | 0 | 321 | 93,1 | 1002,7 |
| 64 | Los Colihues | 05-05-2026 15:45 | 18 | 77,3 | 0 | 0 | 326 | 119,4 | 1002,3 |
| 63 | Los Colihues | 05-05-2026 15:30 | 18,2 | 76,9 | 0 | 0 | 327 | 114,4 | 1002,2 |
| 62 | Los Colihues | 05-05-2026 15:15 | 18,2 | 76,5 | 0 | 0 | 319 | 339,4 | 1002 |
| 61 | Los Colihues | 05-05-2026 15:00 | 18,4 | 78,8 | 0 | 0 | 299 | 214,4 | 1002,3 |
| 60 | Los Colihues | 05-05-2026 14:45 | 18,2 | 78,6 | 0 | 0 | 292 | 213,1 | 1002,4 |
| 59 | Los Colihues | 05-05-2026 14:30 | 17,6 | 80,8 | 0 | 0 | 257 | 179,4 | 1002,1 |
| 58 | Los Colihues | 05-05-2026 14:15 | 17,4 | 82,7 | 0 | 0 | 291 | 170,6 | 1002,4 |
| 57 | Los Colihues | 05-05-2026 14:00 | 17,4 | 84,7 | 0 | 0 | 291 | 185,6 | 1002,3 |
| 56 | Los Colihues | 05-05-2026 13:45 | 17 | 83,5 | 0 | 0 | 253 | 135,6 | 1002,5 |
| 55 | Los Colihues | 05-05-2026 13:30 | 16,9 | 84,2 | 0 | 0 | 251 | 183,1 | 1002,1 |
| 54 | Los Colihues | 05-05-2026 13:15 | 16,9 | 86,7 | 0 | 0,5 | 268 | 220,6 | 1002,5 |
| 53 | Los Colihues | 05-05-2026 13:00 | 17 | 82,7 | 0 | 0 | 17 | 156,9 | 1002,9 |
| 52 | Los Colihues | 05-05-2026 12:45 | 16,5 | 83,6 | 0 | 0 | 14 | 176,9 | 1002,1 |
| 51 | Los Colihues | 05-05-2026 12:30 | 16,7 | 84,2 | 0 | 0 | 11 | 173,1 | 1002,4 |
| 50 | Los Colihues | 05-05-2026 12:15 | 16,2 | 85,4 | 0 | 0 | 1 | 165,6 | 1002,9 |
| 49 | Los Colihues | 05-05-2026 12:00 | 16,2 | 88,6 | 0 | 0 | 279 | 191,9 | 1003,1 |
| 48 | Los Colihues | 05-05-2026 11:45 | 16 | 89 | 0 | 0 | 340 | 225,6 | 1002,7 |
| 47 | Los Colihues | 05-05-2026 11:30 | 15,9 | 90,3 | 0 | 0 | 3 | 234,4 | 1003,4 |
| 46 | Los Colihues | 05-05-2026 11:15 | 15,1 | 92,5 | 0 | 0 | 15 | 225,6 | 1003 |
| 45 | Los Colihues | 05-05-2026 11:00 | 14,3 | 99,7 | 0 | 0 | 358 | 204,4 | 1003 |
| 44 | Los Colihues | 05-05-2026 10:45 | 14 | 100 | 0 | 0 | 14 | 183,1 | 1003,2 |
| 43 | Los Colihues | 05-05-2026 10:30 | 13,3 | 100 | 0 | 0 | 1 | 229,4 | 1003 |
| 42 | Los Colihues | 05-05-2026 10:15 | 13 | 100 | 0 | 0 | 8 | 130,6 | 1003,7 |
| 41 | Los Colihues | 05-05-2026 10:00 | 12,7 | 100 | 0 | 0 | 20 | 120,6 | 1003,9 |
| 40 | Los Colihues | 05-05-2026 09:45 | 12,5 | 100 | 0 | 0 | 24 | 91,9 | 1003,9 |
| 39 | Los Colihues | 05-05-2026 09:30 | 12,1 | 100 | 0 | 0 | 11 | 98,1 | 1003,5 |
| 38 | Los Colihues | 05-05-2026 09:15 | 11,8 | 100 | 0 | 0 | 10 | 60,6 | 1003,7 |
| 37 | Los Colihues | 05-05-2026 09:00 | 11,7 | 100 | 0 | 0 | 10 | 55,6 | 1003,9 |
| 36 | Los Colihues | 05-05-2026 08:45 | 11,4 | 100 | 0 | 0 | 10 | 58,1 | 1004,1 |
| 35 | Los Colihues | 05-05-2026 08:30 | 11,2 | 100 | 0 | 0 | 10 | 28,1 | 1004,2 |
| 34 | Los Colihues | 05-05-2026 08:15 | 11,1 | 100 | 0 | 0 | 11 | 31,9 | 1004,6 |
| 33 | Los Colihues | 05-05-2026 08:00 | 11,1 | 100 | 0 | 0 | 11 | 23,1 | 1004,8 |
| 32 | Los Colihues | 05-05-2026 07:45 | 11,2 | 100 | 0 | 0 | 13 | 6,9 | 1004,4 |
| 31 | Los Colihues | 05-05-2026 07:30 | 10,9 | 100 | 0 | 0 | 79 | 0,6 | 1004,7 |
| 30 | Los Colihues | 05-05-2026 07:15 | 10,6 | 100 | 0 | 0 | 79 | 0,6 | 1004,6 |
| 29 | Los Colihues | 05-05-2026 07:00 | 10,7 | 100 | 0 | 0 | 79 | 0,6 | 1005,1 |
| 28 | Los Colihues | 05-05-2026 06:45 | 10,9 | 100 | 0 | 0 | 79 | 0,6 | 1005,3 |
| 27 | Los Colihues | 05-05-2026 06:30 | 11 | 100 | 0 | 0 | 79 | 0,6 | 1005,4 |
| 26 | Los Colihues | 05-05-2026 06:15 | 11 | 100 | 0 | 0 | 79 | 0,6 | 1005,3 |
| 25 | Los Colihues | 05-05-2026 06:00 | 10,9 | 100 | 0 | 0 | 79 | 0,6 | 1005,5 |
| 24 | Los Colihues | 05-05-2026 05:45 | 10,9 | 100 | 0 | 0 | 27 | 0,6 | 1005 |
| 23 | Los Colihues | 05-05-2026 05:30 | 10,9 | 100 | 0 | 0 | 13 | 0,6 | 1005,4 |
| 22 | Los Colihues | 05-05-2026 05:15 | 11 | 100 | 0 | 0 | 60 | 0,6 | 1006,2 |
| 21 | Los Colihues | 05-05-2026 05:00 | 10,9 | 100 | 0 | 0 | 39 | 0,6 | 1005,5 |
| 20 | Los Colihues | 05-05-2026 04:45 | 10,9 | 100 | 0 | 0 | 27 | 0,6 | 1005,8 |
| 19 | Los Colihues | 05-05-2026 04:30 | 10,9 | 100 | 0 | 0 | 27 | 0,6 | 1005,4 |
| 18 | Los Colihues | 05-05-2026 04:15 | 11 | 100 | 0 | 0 | 27 | 0,6 | 1005,6 |
| 17 | Los Colihues | 05-05-2026 04:00 | 11 | 100 | 0 | 0 | 27 | 0,6 | 1005,4 |
| 16 | Los Colihues | 05-05-2026 03:45 | 11,2 | 100 | 0 | 0 | 24 | 0,6 | 1004,9 |
| 15 | Los Colihues | 05-05-2026 03:30 | 10,5 | 100 | 0 | 0 | 13 | 0,6 | 1004,9 |
| 14 | Los Colihues | 05-05-2026 03:15 | 10,6 | 100 | 0 | 0 | 13 | 0,6 | 1005,2 |
| 13 | Los Colihues | 05-05-2026 03:00 | 10,6 | 100 | 0 | 0 | 13 | 0,6 | 1005,4 |
| 12 | Los Colihues | 05-05-2026 02:45 | 10,6 | 100 | 0 | 0 | 13 | 0,6 | 1005,4 |
| 11 | Los Colihues | 05-05-2026 02:30 | 10,5 | 100 | 0 | 0 | 13 | 0,6 | 1005,5 |
| 10 | Los Colihues | 05-05-2026 02:15 | 10,7 | 100 | 0 | 0 | 13 | 0,6 | 1005,9 |
| 9 | Los Colihues | 05-05-2026 02:00 | 10,5 | 100 | 0 | 0 | 13 | 0,6 | 1005,7 |
| 8 | Los Colihues | 05-05-2026 01:45 | 10,5 | 100 | 0 | 0 | 13 | 0,6 | 1005,9 |
| 7 | Los Colihues | 05-05-2026 01:30 | 10,2 | 100 | 0 | 0 | 13 | 0,6 | 1005,9 |
| 6 | Los Colihues | 05-05-2026 01:15 | 10,2 | 100 | 0 | 0 | 13 | 0,6 | 1005,8 |
| 5 | Los Colihues | 05-05-2026 01:00 | 10,3 | 100 | 0 | 0 | 13 | 0,6 | 1005,7 |
| 4 | Los Colihues | 05-05-2026 00:45 | 10,1 | 100 | 0 | 0 | 13 | 0,6 | 1005,8 |
| 3 | Los Colihues | 05-05-2026 00:30 | 10,2 | 100 | 0 | 0 | 13 | 0,6 | 1006 |
| 2 | Los Colihues | 05-05-2026 00:15 | 10,2 | 100 | 0 | 0 | 13 | 0,6 | 1006,3 |
| 1 | Los Colihues | 05-05-2026 00:00 | 10,2 | 100 | 0 | 0 | 13 | 0,6 | 1006,4 |